Jamestown, ND (58401)

9:28 AM CST on February 13, 2016 (GMT -0600)
Leapaldt Addition | | Change Station
CLOSE
Current Station
Personal Weather Station
Location: Jamestown, ND
Elevation: 1486 ft
Nearby Weather Stations
Active Advisory: Winter Weather Advisory

Elev 1486 ft 46.93 °N, 98.69 °W | Updated 3 seconds ago

Overcast
Overcast
1.0 °F
Feels Like -14 °F
N
9.4
Wind Variable Wind from SE

Today
High -- | Low -- °F
--% Chance of Precip.
Yesterday
High -- | Low -- °F
Precip. -- in
Pressure 30.51 in
Visibility 10.0 miles
Clouds Overcast 6000 ft
Windchill -14 °F
Dew Point -6 °F
Humidity 71%
Rainfall 0.00 in
Snow Depth Not available.
7:43 AM 5:55 PM
Waxing Crescent, 31% visible
METAR KJMS 131456Z AUTO 15014KT 10SM OVC060 M18/M23 A3037 RMK AO2 SLP329 T11781228 58023
Pressure 30.51 in
Visibility 10.0 miles
Clouds Overcast 6000 ft
Windchill -14 °F
Dew Point -6 °F
Humidity 71%
Rainfall 0.00 in
Snow Depth Not available.
7:43 AM 5:55 PM
Waxing Crescent, 31% visible
METAR KJMS 131456Z AUTO 15014KT 10SM OVC060 M18/M23 A3037 RMK AO2 SLP329 T11781228 58023

10-Day Weather Forecast

Almanac

Astronomy

Feb. 13, 2016 Rise Set
Actual Time
Civil Twilight
Nautical Twilight
Astronomical Twilight
Moon
Length of Visible Light
Length of Day
Tomorrow will be .
, % of the Moon is Illuminated

Today's Extremes

State Highs State Lows

Community

WunderPhotos

Upload Photos

1,892,580 photos uploaded!

WunderBlog® & News

Nearby

Air Quality

  Air Quality AQ Index Pollutant
Not available.

Snow Depth

Station Depth Elevation

Earthquake Activity

City Distance Mag. Time & Date
Minimum magnitude displayed is 2.5.

Coastal Water Temperatures

Place Temperature

Stations

Nearby Weather Stations

Station Location Temp. Windchill Dew Point Humidity Wind Precip. Elev Updated Type
                   

Watches & Warnings

Winter Weather Advisory
Issued: 5:54 AM MST Feb. 13, 2016 – National Weather Service

... Winter Weather Advisory remains in effect from noon CST /11 am
MST/ today to 6 am CST /5 am MST/ Sunday...

* expect snow to develop this afternoon and then diminish around
6 am CST Sunday.

* The heaviest snowfall rates will occur between 6 PM CST this
evening and midnight CST tonight.

* Total snow accumulations of 3 to 6 inches.

* Plan on slippery Road conditions.

Precautionary/preparedness actions...

A Winter Weather Advisory means that periods of snow... sleet or
freezing rain will cause travel difficulties. Be prepared for
slippery roads and limited visibilities... and use caution while
driving. The latest Road conditions for the state you are calling
from can be obtained by calling 5 1 1.


Ayd